createdAt,value
2017-07-09T00:01:28.092Z,16.50
2017-07-09T00:03:54.325Z,16.50
2017-07-09T00:06:20.605Z,16.20
2017-07-09T00:08:46.842Z,16.50
2017-07-09T00:11:13.127Z,16.20
2017-07-09T00:13:39.392Z,16.50
2017-07-09T00:17:35.868Z,16.20
2017-07-09T00:20:02.181Z,15.80
2017-07-09T00:22:28.434Z,16.00
2017-07-09T00:24:54.658Z,15.80
2017-07-09T00:27:20.910Z,15.70
2017-07-09T00:29:47.158Z,15.70
2017-07-09T00:32:13.395Z,15.80
2017-07-09T00:34:39.655Z,16.10
2017-07-09T00:37:05.893Z,16.00
2017-07-09T00:39:32.138Z,16.10
2017-07-09T00:41:58.381Z,15.80
2017-07-09T00:44:24.623Z,16.10
2017-07-09T00:46:50.879Z,16.10
2017-07-09T00:49:17.135Z,16.40
2017-07-09T00:51:43.388Z,16.20
2017-07-09T00:54:09.627Z,16.10
2017-07-09T00:56:35.861Z,16.10
2017-07-09T00:59:02.120Z,16.10
2017-07-09T01:01:28.356Z,16.10
2017-07-09T01:03:54.597Z,16.10
2017-07-09T01:06:20.848Z,15.70
2017-07-09T01:08:47.100Z,15.70
2017-07-09T01:11:13.320Z,15.80
2017-07-09T01:13:39.567Z,15.90
2017-07-09T01:17:35.544Z,15.90
2017-07-09T01:20:01.830Z,15.90
2017-07-09T01:22:28.073Z,15.70
2017-07-09T01:24:54.311Z,15.70
2017-07-09T01:27:20.551Z,16.00
2017-07-09T01:29:46.794Z,16.00
2017-07-09T01:32:13.063Z,15.50
2017-07-09T01:34:39.315Z,15.70
2017-07-09T01:37:05.562Z,15.70
2017-07-09T01:39:31.817Z,15.90
2017-07-09T01:41:58.085Z,16.00
2017-07-09T01:44:24.389Z,15.70
2017-07-09T01:46:50.650Z,15.60
2017-07-09T01:49:16.910Z,15.70
2017-07-09T01:51:43.176Z,15.60
2017-07-09T01:54:09.450Z,15.70
2017-07-09T01:56:35.736Z,15.60
2017-07-09T01:59:02.023Z,15.70
2017-07-09T02:01:28.369Z,15.20
2017-07-09T02:03:54.627Z,15.40
2017-07-09T02:06:20.892Z,15.70
2017-07-09T02:08:47.123Z,15.50
2017-07-09T02:11:13.362Z,15.50
2017-07-09T02:13:39.635Z,15.70
2017-07-09T02:17:36.235Z,15.80
2017-07-09T02:20:02.512Z,15.10
2017-07-09T02:22:28.755Z,15.40
2017-07-09T02:24:54.997Z,15.40
2017-07-09T02:27:21.271Z,15.10
2017-07-09T02:29:47.512Z,15.30
2017-07-09T02:32:13.771Z,15.20
2017-07-09T02:34:39.997Z,15.20
2017-07-09T02:37:06.239Z,15.20
2017-07-09T02:39:32.472Z,15.20
2017-07-09T02:41:58.716Z,15.20
2017-07-09T02:44:24.975Z,15.90
2017-07-09T02:46:51.216Z,15.80
2017-07-09T02:49:17.476Z,15.60
2017-07-09T02:51:43.711Z,15.80
2017-07-09T02:54:09.919Z,15.60
2017-07-09T02:56:36.192Z,15.30
2017-07-09T02:59:02.435Z,15.20
2017-07-09T03:01:28.673Z,15.20
2017-07-09T03:03:54.904Z,15.20
2017-07-09T03:06:21.163Z,15.10
2017-07-09T03:08:47.412Z,14.70
2017-07-09T03:11:13.664Z,15.40
2017-07-09T03:13:39.911Z,15.20
2017-07-09T03:17:36.868Z,14.80
2017-07-09T03:20:03.133Z,14.90
2017-07-09T03:22:29.355Z,14.70
2017-07-09T03:24:55.585Z,14.70
2017-07-09T03:27:21.820Z,14.60
2017-07-09T03:29:48.065Z,14.70
2017-07-09T03:32:14.333Z,14.70
2017-07-09T03:34:40.580Z,14.70
2017-07-09T03:37:06.848Z,14.90
2017-07-09T03:39:33.083Z,14.80
2017-07-09T03:41:59.327Z,15.10
2017-07-09T03:44:25.597Z,14.80
2017-07-09T03:46:51.832Z,15.20
2017-07-09T03:49:18.078Z,15.20
2017-07-09T03:51:44.307Z,15.20
2017-07-09T03:54:10.544Z,15.20
2017-07-09T03:56:36.808Z,15.20
2017-07-09T03:59:03.066Z,15.20
2017-07-09T04:01:29.303Z,14.90
2017-07-09T04:03:55.550Z,15.10
2017-07-09T04:06:21.779Z,14.70
2017-07-09T04:08:48.041Z,14.70
2017-07-09T04:11:14.289Z,14.80
2017-07-09T04:13:40.644Z,15.10
2017-07-09T04:17:36.008Z,15.10
2017-07-09T04:20:02.299Z,15.20
2017-07-09T04:22:28.544Z,15.20
2017-07-09T04:24:54.785Z,15.10
2017-07-09T04:27:21.803Z,15.20
2017-07-09T04:29:48.034Z,15.30
2017-07-09T04:32:14.261Z,15.10
2017-07-09T04:34:40.490Z,15.10
2017-07-09T04:37:06.732Z,15.10
2017-07-09T04:39:33.031Z,15.20
2017-07-09T04:41:59.271Z,15.80
2017-07-09T04:44:25.506Z,15.40
2017-07-09T04:46:51.761Z,15.40
2017-07-09T04:49:17.994Z,15.10
2017-07-09T04:51:44.216Z,15.40
2017-07-09T04:54:10.443Z,15.10
2017-07-09T04:56:36.680Z,15.20
2017-07-09T04:59:02.969Z,15.30
2017-07-09T05:01:29.202Z,15.00
2017-07-09T05:03:55.452Z,15.10
2017-07-09T05:06:21.704Z,15.10
2017-07-09T05:08:47.943Z,15.30
2017-07-09T05:11:14.208Z,15.30
2017-07-09T05:13:40.456Z,15.80
2017-07-09T05:17:36.099Z,15.90
2017-07-09T05:20:02.399Z,15.60
2017-07-09T05:22:28.667Z,15.60
2017-07-09T05:24:54.903Z,15.60
2017-07-09T05:27:21.136Z,15.70
2017-07-09T05:29:47.409Z,15.80
2017-07-09T05:32:13.652Z,15.70
2017-07-09T05:34:39.916Z,15.80
2017-07-09T05:37:06.169Z,15.80
2017-07-09T05:39:32.411Z,16.30
2017-07-09T05:41:58.659Z,15.50
2017-07-09T05:44:24.907Z,16.00
2017-07-09T05:46:51.148Z,16.20
2017-07-09T05:49:17.383Z,16.30
2017-07-09T05:51:43.622Z,16.30
2017-07-09T05:54:09.875Z,16.10
2017-07-09T05:56:36.484Z,16.20
2017-07-09T05:59:02.742Z,16.60
2017-07-09T06:01:28.993Z,16.20
2017-07-09T06:03:55.232Z,16.60
2017-07-09T06:06:21.591Z,16.60
2017-07-09T06:08:47.822Z,16.70
2017-07-09T06:11:14.418Z,16.60
2017-07-09T06:13:40.657Z,16.70
2017-07-09T06:17:35.357Z,17.00
2017-07-09T06:20:02.079Z,17.10
2017-07-09T06:22:28.311Z,17.00
2017-07-09T06:24:54.556Z,17.00
2017-07-09T06:27:20.808Z,16.70
2017-07-09T06:29:47.111Z,16.90
2017-07-09T06:32:13.349Z,17.00
2017-07-09T06:34:39.590Z,17.10
2017-07-09T06:37:05.929Z,17.10
2017-07-09T06:39:32.244Z,16.80
2017-07-09T06:41:59.042Z,16.80
2017-07-09T06:44:25.271Z,16.80
2017-07-09T06:46:51.509Z,17.10
2017-07-09T06:49:17.808Z,17.50
2017-07-09T06:51:44.049Z,17.30
2017-07-09T06:54:11.105Z,17.50
2017-07-09T06:56:37.412Z,17.30
2017-07-09T06:59:03.638Z,17.40
2017-07-09T07:01:29.895Z,17.40
2017-07-09T07:03:56.115Z,17.70
2017-07-09T07:06:22.350Z,17.70
2017-07-09T07:08:48.604Z,17.70
2017-07-09T07:11:14.867Z,17.70
2017-07-09T07:13:41.127Z,17.70
2017-07-09T07:17:36.056Z,17.60
2017-07-09T07:20:02.323Z,18.10
2017-07-09T07:22:28.587Z,18.00
2017-07-09T07:24:54.820Z,18.00
2017-07-09T07:27:21.042Z,18.20
2017-07-09T07:29:47.476Z,18.60
2017-07-09T07:32:13.710Z,18.60
2017-07-09T07:34:39.939Z,18.60
2017-07-09T07:37:06.171Z,18.70
2017-07-09T07:39:32.400Z,19.50
2017-07-09T07:41:58.618Z,20.80
2017-07-09T07:44:24.872Z,21.80
2017-07-09T07:46:51.116Z,22.30
2017-07-09T07:49:17.329Z,23.20
2017-07-09T07:51:43.583Z,23.90
2017-07-09T07:54:09.843Z,23.20
2017-07-09T07:56:36.106Z,23.20
2017-07-09T07:59:02.348Z,23.80
2017-07-09T08:01:28.601Z,23.70
2017-07-09T08:03:54.835Z,24.20
2017-07-09T08:06:21.246Z,23.60
2017-07-09T08:08:47.524Z,23.60
2017-07-09T08:11:13.792Z,24.30
2017-07-09T08:13:40.150Z,24.60
2017-07-09T08:17:35.913Z,24.20
2017-07-09T08:20:02.242Z,24.30
2017-07-09T08:22:28.733Z,24.30
2017-07-09T08:24:55.029Z,23.50
2017-07-09T08:27:21.340Z,23.60
2017-07-09T08:29:47.632Z,23.70
2017-07-09T08:32:14.387Z,23.80
2017-07-09T08:34:40.844Z,23.80
2017-07-09T08:37:07.172Z,23.80
2017-07-09T08:39:33.526Z,24.30
2017-07-09T08:41:59.901Z,24.20
2017-07-09T08:44:26.362Z,23.60
2017-07-09T08:46:52.792Z,23.80
2017-07-09T08:49:19.122Z,23.70
2017-07-09T08:51:46.221Z,23.60
2017-07-09T08:54:12.718Z,23.80
2017-07-09T08:56:39.786Z,23.50
2017-07-09T08:59:06.177Z,23.40
2017-07-09T09:01:32.516Z,23.50
2017-07-09T09:03:58.891Z,24.20
2017-07-09T09:06:25.287Z,24.20
2017-07-09T09:08:51.617Z,24.10
2017-07-09T09:11:18.072Z,24.40
2017-07-09T09:13:44.448Z,24.30
2017-07-09T09:17:35.487Z,23.70
2017-07-09T09:20:01.719Z,24.30
2017-07-09T09:22:28.012Z,24.80
2017-07-09T09:24:54.273Z,24.30
2017-07-09T09:27:20.508Z,23.70
2017-07-09T09:29:46.751Z,23.90
2017-07-09T09:32:13.736Z,24.30
2017-07-09T09:34:41.002Z,24.60
2017-07-09T09:37:08.137Z,24.60
2017-07-09T09:39:35.629Z,23.90
2017-07-09T09:42:02.686Z,24.30
2017-07-09T09:44:29.828Z,24.30
2017-07-09T09:46:57.083Z,24.50
2017-07-09T09:49:24.176Z,24.80
2017-07-09T09:51:52.086Z,24.40
2017-07-09T09:54:19.309Z,24.40
2017-07-09T09:56:46.424Z,24.60
2017-07-09T09:59:14.336Z,24.50
2017-07-09T10:01:41.594Z,24.00
2017-07-09T10:04:08.806Z,24.70
2017-07-09T10:06:35.911Z,24.40
2017-07-09T10:09:03.448Z,25.10
2017-07-09T10:11:30.627Z,24.80
2017-07-09T10:13:57.809Z,25.10
2017-07-09T10:17:36.554Z,24.90
2017-07-09T10:20:03.704Z,25.10
2017-07-09T10:22:29.949Z,25.30
2017-07-09T10:24:57.262Z,25.40
2017-07-09T10:27:24.272Z,25.40
2017-07-09T10:29:51.482Z,25.40
2017-07-09T10:32:18.627Z,25.50
2017-07-09T10:34:45.725Z,25.50
2017-07-09T10:37:12.867Z,26.20
2017-07-09T10:39:39.576Z,26.20
2017-07-09T10:42:06.688Z,26.10
2017-07-09T10:44:33.300Z,26.30
2017-07-09T10:47:00.501Z,26.30
2017-07-09T10:49:27.628Z,26.40
2017-07-09T10:51:55.530Z,26.90
2017-07-09T10:54:21.945Z,26.50
2017-07-09T10:56:48.348Z,26.50
2017-07-09T10:59:15.492Z,26.20
2017-07-09T11:01:42.552Z,26.40
2017-07-09T11:04:08.962Z,26.50
2017-07-09T11:06:35.455Z,26.60
2017-07-09T11:09:01.681Z,25.60
2017-07-09T11:11:27.898Z,25.90
2017-07-09T11:13:54.211Z,26.30
2017-07-09T11:17:35.439Z,25.90
2017-07-09T11:20:01.960Z,25.50
2017-07-09T11:22:29.144Z,26.40
2017-07-09T11:24:56.245Z,25.70
2017-07-09T11:27:22.499Z,25.90
2017-07-09T11:29:48.743Z,26.60
2017-07-09T11:32:15.028Z,26.60
2017-07-09T11:34:41.310Z,26.30
2017-07-09T11:37:08.577Z,26.60
2017-07-09T11:39:34.891Z,26.60
2017-07-09T11:42:01.276Z,26.40
2017-07-09T11:44:28.869Z,26.20
2017-07-09T11:46:56.210Z,25.80
2017-07-09T11:49:25.217Z,26.50
2017-07-09T12:01:31.557Z,26.60
2017-07-09T12:03:57.795Z,27.40
2017-07-09T12:06:24.679Z,27.30
2017-07-09T12:08:50.920Z,27.40
2017-07-09T12:11:17.181Z,27.30
2017-07-09T12:13:43.397Z,27.10
2017-07-09T12:17:36.069Z,27.10
2017-07-09T12:20:02.292Z,27.90
2017-07-09T12:22:28.594Z,28.40
2017-07-09T12:24:54.845Z,28.60
2017-07-09T12:27:21.052Z,28.70
2017-07-09T12:29:47.281Z,28.70
2017-07-09T12:32:13.499Z,29.10
2017-07-09T12:34:39.695Z,28.80
2017-07-09T12:37:05.899Z,29.00
2017-07-09T12:39:32.128Z,28.70
2017-07-09T12:41:58.359Z,28.00
2017-07-09T12:44:25.315Z,27.90
2017-07-09T12:46:51.560Z,27.60
2017-07-09T12:49:17.786Z,28.30
2017-07-09T12:51:44.017Z,28.00
2017-07-09T12:54:10.219Z,28.00
2017-07-09T12:56:36.443Z,27.80
2017-07-09T12:59:02.707Z,28.00
2017-07-09T13:01:28.921Z,27.80
2017-07-09T13:03:55.749Z,27.40
2017-07-09T13:06:22.038Z,27.70
2017-07-09T13:08:48.260Z,27.70
2017-07-09T13:11:14.501Z,28.40
2017-07-09T13:13:40.763Z,28.70
2017-07-09T13:17:35.869Z,28.80
2017-07-09T13:20:02.120Z,28.30
2017-07-09T13:22:28.367Z,28.20
2017-07-09T13:24:54.606Z,28.30
2017-07-09T13:27:20.833Z,28.20
2017-07-09T13:29:47.670Z,28.20
2017-07-09T13:35:11.347Z,28.20
2017-07-09T13:37:39.769Z,28.20
2017-07-09T13:40:06.069Z,28.40
2017-07-09T13:42:32.300Z,28.20
2017-07-09T13:44:58.556Z,27.80
2017-07-09T13:47:24.779Z,27.50
2017-07-09T13:49:51.001Z,27.70
2017-07-09T13:52:17.229Z,28.10
2017-07-09T13:54:43.494Z,28.20
2017-07-09T13:57:09.777Z,27.90
2017-07-09T13:59:35.972Z,28.10
2017-07-09T14:02:07.268Z,28.10
2017-07-09T14:04:33.535Z,28.30
2017-07-09T14:06:59.771Z,28.60
2017-07-09T14:09:27.046Z,28.60
2017-07-09T14:11:55.472Z,28.20
2017-07-09T14:14:23.086Z,28.10
2017-07-09T14:17:37.678Z,28.20
2017-07-09T14:20:06.009Z,28.70
2017-07-09T14:22:33.702Z,28.50
2017-07-09T14:25:01.066Z,28.70
2017-07-09T14:27:28.252Z,28.70
2017-07-09T14:29:55.561Z,28.50
2017-07-09T14:32:22.458Z,28.40
2017-07-09T14:34:49.453Z,28.60
2017-07-09T14:37:16.553Z,28.60
2017-07-09T14:39:43.789Z,28.60
2017-07-09T14:42:11.938Z,28.20
2017-07-09T14:44:38.170Z,28.20
2017-07-09T14:47:04.385Z,28.20
2017-07-09T14:49:30.621Z,28.20
2017-07-09T14:51:56.860Z,28.00
2017-07-09T14:54:23.075Z,28.40
2017-07-09T14:56:49.494Z,27.90
2017-07-09T14:59:15.727Z,28.20
2017-07-09T15:01:41.955Z,28.40
2017-07-09T15:04:08.163Z,28.00
2017-07-09T15:06:34.386Z,27.90
2017-07-09T15:09:01.008Z,28.00
2017-07-09T15:11:27.235Z,27.70
2017-07-09T15:13:53.444Z,27.70
2017-07-09T15:17:36.221Z,28.00
2017-07-09T15:20:02.451Z,27.70
2017-07-09T15:22:28.693Z,27.40
2017-07-09T15:24:54.920Z,27.70
2017-07-09T15:27:21.131Z,27.60
2017-07-09T15:29:47.340Z,27.30
2017-07-09T15:32:13.552Z,27.30
2017-07-09T15:34:39.776Z,27.40
2017-07-09T15:37:05.983Z,27.30
2017-07-09T15:39:32.199Z,27.20
2017-07-09T15:41:59.177Z,27.40
2017-07-09T15:44:25.386Z,27.10
2017-07-09T15:46:51.635Z,27.40
2017-07-09T15:49:17.854Z,27.40
2017-07-09T15:51:44.088Z,27.30
2017-07-09T15:54:10.333Z,27.60
2017-07-09T15:56:36.565Z,27.30
2017-07-09T15:59:02.796Z,27.80
2017-07-09T16:01:29.013Z,27.60
2017-07-09T16:03:55.277Z,27.10
2017-07-09T16:06:21.523Z,27.40
2017-07-09T16:08:48.473Z,27.80
2017-07-09T16:11:15.443Z,27.50
2017-07-09T16:13:43.499Z,27.30
2017-07-09T16:17:43.102Z,27.30
2017-07-09T16:20:10.075Z,27.40
2017-07-09T16:22:36.349Z,27.00
2017-07-09T16:25:02.578Z,26.60
2017-07-09T16:27:28.813Z,26.90
2017-07-09T16:29:55.079Z,27.30
2017-07-09T16:32:21.317Z,27.50
2017-07-09T16:34:47.522Z,27.00
2017-07-09T16:37:13.739Z,26.90
2017-07-09T16:39:39.959Z,26.60
2017-07-09T16:42:06.181Z,26.40
2017-07-09T16:44:32.424Z,26.50
2017-07-09T16:46:59.396Z,26.50
2017-07-09T16:49:25.621Z,26.40
2017-07-09T16:51:51.853Z,26.40
2017-07-09T16:54:18.096Z,26.40
2017-07-09T16:56:44.339Z,26.50
2017-07-09T16:59:10.563Z,26.60
2017-07-09T17:01:36.793Z,26.40
2017-07-09T17:04:03.016Z,26.40
2017-07-09T17:06:29.284Z,26.30
2017-07-09T17:08:55.520Z,26.10
2017-07-09T17:11:21.761Z,25.70
2017-07-09T17:13:48.784Z,25.70
2017-07-09T17:17:36.216Z,25.90
2017-07-09T17:20:02.493Z,25.70
2017-07-09T17:22:28.705Z,25.70
2017-07-09T17:24:54.922Z,25.40
2017-07-09T17:27:21.171Z,25.70
2017-07-09T17:29:47.408Z,25.00
2017-07-09T17:32:14.017Z,25.30
2017-07-09T17:34:40.286Z,25.20
2017-07-09T17:37:06.498Z,25.00
2017-07-09T17:39:32.781Z,24.90
2017-07-09T17:41:58.993Z,25.20
2017-07-09T17:44:25.232Z,24.90
2017-07-09T17:46:51.455Z,24.70
2017-07-09T17:49:17.711Z,24.70
2017-07-09T17:51:43.960Z,24.80
2017-07-09T17:54:10.244Z,24.80
2017-07-09T17:56:37.373Z,24.70
2017-07-09T17:59:03.628Z,24.60
2017-07-09T18:01:29.971Z,24.80
2017-07-09T18:03:56.260Z,24.50
2017-07-09T18:06:22.549Z,24.20
2017-07-09T18:08:48.795Z,24.70
2017-07-09T18:11:15.015Z,24.50
2017-07-09T18:13:41.253Z,24.20
2017-07-09T18:17:35.632Z,24.40
2017-07-09T18:20:01.928Z,24.40
2017-07-09T18:22:28.618Z,24.30
2017-07-09T18:24:55.408Z,24.00
2017-07-09T18:27:22.681Z,23.90
2017-07-09T18:29:49.115Z,23.90
2017-07-09T18:32:15.348Z,23.80
2017-07-09T18:34:41.767Z,23.90
2017-07-09T18:37:07.993Z,23.70
2017-07-09T18:39:34.263Z,23.50
2017-07-09T18:42:00.501Z,23.20
2017-07-09T18:44:26.738Z,23.70
2017-07-09T18:46:53.002Z,23.10
2017-07-09T18:49:19.248Z,23.10
2017-07-09T18:51:45.483Z,23.00
2017-07-09T18:54:11.757Z,23.20
2017-07-09T18:56:38.052Z,23.10
2017-07-09T18:59:04.494Z,22.90
2017-07-09T19:01:30.905Z,22.60
2017-07-09T19:03:57.149Z,22.80
2017-07-09T19:06:23.396Z,22.50
2017-07-09T19:08:49.658Z,22.40
2017-07-09T19:11:15.911Z,22.40
2017-07-09T19:13:42.397Z,22.50
2017-07-09T19:17:36.201Z,22.30
2017-07-09T19:20:02.463Z,22.80
2017-07-09T19:22:28.695Z,22.30
2017-07-09T19:24:54.996Z,22.40
2017-07-09T19:27:21.213Z,22.40
2017-07-09T19:29:47.483Z,22.30
2017-07-09T19:32:13.697Z,22.30
2017-07-09T19:34:39.922Z,22.30
2017-07-09T19:37:06.162Z,22.40
2017-07-09T19:39:33.828Z,22.10
2017-07-09T19:42:01.205Z,22.30
2017-07-09T19:44:27.725Z,22.20
2017-07-09T19:46:53.953Z,22.10
2017-07-09T19:49:20.177Z,21.80
2017-07-09T19:51:46.579Z,22.20
2017-07-09T19:54:13.151Z,22.10
2017-07-09T19:56:39.639Z,22.10
2017-07-09T19:59:06.042Z,21.60
2017-07-09T20:01:32.270Z,21.30
2017-07-09T20:03:58.520Z,21.70
2017-07-09T20:06:24.802Z,22.20
2017-07-09T20:08:51.039Z,21.70
2017-07-09T20:11:17.267Z,21.90
2017-07-09T20:13:43.487Z,21.50
2017-07-09T20:17:36.613Z,21.50
2017-07-09T20:20:02.891Z,21.40
2017-07-09T20:22:29.140Z,21.30
2017-07-09T20:24:55.377Z,21.00
2017-07-09T20:27:21.596Z,21.10
2017-07-09T20:29:47.829Z,20.90
2017-07-09T20:32:14.991Z,20.90
2017-07-09T20:34:41.675Z,20.90
2017-07-09T20:37:08.032Z,21.10
2017-07-09T20:39:34.475Z,20.90
2017-07-09T20:42:01.080Z,20.90
2017-07-09T20:44:27.620Z,20.90
2017-07-09T20:46:54.391Z,20.90
2017-07-09T20:49:20.774Z,20.90
2017-07-09T20:51:47.155Z,20.80
2017-07-09T20:54:14.135Z,20.70
2017-07-09T20:56:40.389Z,20.80
2017-07-09T20:59:06.607Z,20.60
2017-07-09T21:01:32.852Z,20.80
2017-07-09T21:03:59.096Z,20.80
2017-07-09T21:06:25.805Z,20.70
2017-07-09T21:08:52.324Z,20.80
2017-07-09T21:11:18.556Z,20.80
2017-07-09T21:13:44.857Z,20.80
2017-07-09T21:17:35.685Z,20.80
2017-07-09T21:20:01.930Z,20.50
2017-07-09T21:22:28.177Z,20.50
2017-07-09T21:24:54.439Z,20.40
2017-07-09T21:27:21.332Z,20.40
2017-07-09T21:29:47.719Z,20.30
2017-07-09T21:32:14.709Z,20.40
2017-07-09T21:34:41.426Z,20.00
2017-07-09T21:37:07.723Z,20.20
2017-07-09T21:39:40.913Z,20.10
2017-07-09T21:42:07.872Z,20.20
2017-07-09T21:44:34.105Z,20.00
2017-07-09T21:47:00.322Z,20.20
2017-07-09T21:49:27.582Z,19.90
2017-07-09T21:51:53.811Z,19.50
2017-07-09T21:54:20.257Z,19.70
2017-07-09T21:56:46.502Z,19.70
2017-07-09T21:59:12.726Z,19.70
2017-07-09T22:01:39.142Z,19.60
2017-07-09T22:04:05.356Z,19.40
2017-07-09T22:06:31.742Z,19.60
2017-07-09T22:08:58.276Z,19.40
2017-07-09T22:11:24.513Z,19.30
2017-07-09T22:13:50.918Z,19.40
2017-07-09T22:17:36.424Z,19.30
2017-07-09T22:20:02.761Z,19.30
2017-07-09T22:22:29.067Z,19.60
2017-07-09T22:24:55.303Z,19.40
2017-07-09T22:27:21.534Z,19.50
2017-07-09T22:29:47.763Z,19.50
2017-07-09T22:32:14.051Z,19.50
2017-07-09T22:34:40.451Z,19.30
2017-07-09T22:37:06.677Z,19.20
2017-07-09T22:39:33.662Z,19.10
2017-07-09T22:41:59.890Z,19.40
2017-07-09T22:44:26.696Z,19.00
2017-07-09T22:46:52.941Z,18.80
2017-07-09T22:49:19.168Z,19.00
2017-07-09T22:51:45.419Z,19.30
2017-07-09T22:54:11.640Z,19.30
2017-07-09T22:56:37.848Z,19.40
2017-07-09T22:59:04.839Z,19.20
2017-07-09T23:01:31.067Z,18.90
2017-07-09T23:03:57.292Z,19.10
2017-07-09T23:06:23.534Z,19.20
2017-07-09T23:08:49.756Z,19.20
2017-07-09T23:11:15.990Z,18.80
2017-07-09T23:13:42.197Z,19.30
2017-07-09T23:17:36.400Z,19.20
2017-07-09T23:20:02.644Z,19.40
2017-07-09T23:22:28.874Z,19.50
2017-07-09T23:24:55.097Z,18.60
2017-07-09T23:27:21.305Z,19.30
2017-07-09T23:29:47.537Z,19.30
2017-07-09T23:32:13.774Z,19.20
2017-07-09T23:34:39.989Z,19.20
2017-07-09T23:37:06.229Z,19.50
2017-07-09T23:39:32.456Z,19.50
2017-07-09T23:41:58.703Z,18.80
2017-07-09T23:44:24.946Z,18.90
2017-07-09T23:46:51.892Z,18.80
2017-07-09T23:49:18.107Z,18.90
2017-07-09T23:51:44.320Z,18.90
2017-07-09T23:54:10.594Z,18.90
2017-07-09T23:56:36.809Z,18.50
2017-07-09T23:59:03.035Z,18.70
